AFR758 LFPG-TFFR
Flight info
| Callsign | AFR758 |
|---|---|
| Flight time | N/A |
| Altitude | 34000 |
| Route | LGL UN491 UPALO/N0474F330 UN585 FEJAC DCT BADUR DCT REGHI/M082F340 DCT ETIKI DCT 47N015W 46N020W 40N030W/M082F360 33N040W 29N045W 25N050W/M082F380 21N055W DCT BNJEE/N0474F380 DCT BOSET BOSET2A |
| Aircraft | B77W/H-SDE1E2E3FGHIJ2J3J4J5M1RWXY/LB1D1 |
Departure
| Time | 2026-05-08 00:56 |
|---|---|
| Airport | Charles de Gaulle International Airport (LFPG) |
Arrival
| Time | N/A |
|---|---|
| Airport | Maryse Condé International Airport (TFFR) |
| Time | Latitude | Longitude | Altitude | Speed | Heading |
|---|---|---|---|---|---|
| 2026-05-08 00:40 | 49.00145 | 2.57822 | 350 ft | 0 kts | 356° |
| 2026-05-08 00:42 | 49.00137 | 2.57822 | 350 ft | 2 kts | 357° |
| 2026-05-08 00:42 | 49.00124 | 2.57824 | 350 ft | 2 kts | 356° |
| 2026-05-08 00:42 | 49.00109 | 2.57825 | 350 ft | 2 kts | 356° |
| 2026-05-08 00:43 | 49.00098 | 2.57826 | 350 ft | 0 kts | 356° |
| 2026-05-08 00:43 | 49.00085 | 2.57829 | 350 ft | 2 kts | 333° |
| 2026-05-08 00:43 | 49.00074 | 2.57843 | 350 ft | 2 kts | 303° |
| 2026-05-08 00:43 | 49.00068 | 2.57864 | 349 ft | 2 kts | 274° |
| 2026-05-08 00:44 | 49.00068 | 2.57874 | 349 ft | 1 kts | 264° |
| 2026-05-08 00:44 | 49.00069 | 2.57879 | 348 ft | 0 kts | 265° |
| 2026-05-08 00:50 | 49.00068 | 2.57870 | 349 ft | 2 kts | 265° |
| 2026-05-08 00:50 | 49.00064 | 2.57818 | 349 ft | 7 kts | 260° |
| 2026-05-08 00:51 | 49.00016 | 2.57762 | 348 ft | 11 kts | 158° |
| 2026-05-08 00:51 | 48.99992 | 2.57916 | 345 ft | 19 kts | 88° |
| 2026-05-08 00:51 | 49.00003 | 2.58153 | 341 ft | 25 kts | 86° |
| 2026-05-08 00:51 | 49.00016 | 2.58398 | 338 ft | 23 kts | 84° |
| 2026-05-08 00:52 | 49.00030 | 2.58676 | 332 ft | 29 kts | 85° |
| 2026-05-08 00:52 | 49.00046 | 2.58980 | 330 ft | 14 kts | 84° |
| 2026-05-08 00:52 | 49.00056 | 2.59156 | 331 ft | 17 kts | 85° |
| 2026-05-08 00:52 | 49.00066 | 2.59348 | 334 ft | 18 kts | 85° |
| 2026-05-08 00:53 | 49.00077 | 2.59544 | 336 ft | 18 kts | 86° |
| 2026-05-08 00:53 | 49.00066 | 2.59629 | 336 ft | 7 kts | 146° |
| 2026-05-08 00:53 | 48.99972 | 2.59654 | 323 ft | 20 kts | 173° |
| 2026-05-08 00:53 | 48.99923 | 2.59661 | 323 ft | 0 kts | 176° |
| 2026-05-08 00:54 | 48.99921 | 2.59661 | 323 ft | 1 kts | 176° |
| 2026-05-08 00:54 | 48.99895 | 2.59664 | 323 ft | 5 kts | 176° |
| 2026-05-08 00:54 | 48.99857 | 2.59667 | 323 ft | 5 kts | 177° |
| 2026-05-08 00:55 | 48.99828 | 2.59652 | 323 ft | 4 kts | 226° |
| 2026-05-08 00:55 | 48.99812 | 2.59607 | 323 ft | 5 kts | 248° |
| 2026-05-08 00:55 | 48.99802 | 2.59558 | 323 ft | 4 kts | 259° |
| 2026-05-08 00:55 | 48.99796 | 2.59506 | 323 ft | 5 kts | 262° |
| 2026-05-08 00:56 | 48.99793 | 2.59461 | 323 ft | 15 kts | 264° |
| 2026-05-08 00:56 | 48.99757 | 2.58838 | 327 ft | 103 kts | 266° |
| 2026-05-08 00:56 | 48.99673 | 2.57326 | 468 ft | 169 kts | 266° |
| 2026-05-08 00:56 | 48.99578 | 2.55504 | 1186 ft | 185 kts | 266° |
| 2026-05-08 00:57 | 48.99531 | 2.53525 | 2102 ft | 194 kts | 273° |
| 2026-05-08 00:57 | 48.99951 | 2.51528 | 2755 ft | 204 kts | 307° |
| 2026-05-08 00:57 | 49.00956 | 2.49956 | 2985 ft | 218 kts | 315° |
| 2026-05-08 00:57 | 49.01654 | 2.47838 | 3098 ft | 238 kts | 276° |
| 2026-05-08 00:58 | 49.01309 | 2.45303 | 3187 ft | 255 kts | 237° |
| 2026-05-08 00:58 | 48.99977 | 2.43509 | 3411 ft | 263 kts | 200° |
| 2026-05-08 00:58 | 48.98203 | 2.42916 | 3977 ft | 262 kts | 187° |
| 2026-05-08 00:58 | 48.96407 | 2.42558 | 4595 ft | 259 kts | 187° |
| 2026-05-08 00:59 | 48.94593 | 2.42210 | 5072 ft | 269 kts | 187° |
| 2026-05-08 00:59 | 48.92766 | 2.41860 | 6038 ft | 267 kts | 187° |
| 2026-05-08 00:59 | 48.90925 | 2.41508 | 6874 ft | 269 kts | 188° |
| 2026-05-08 00:59 | 48.89140 | 2.41167 | 7635 ft | 272 kts | 188° |
| 2026-05-08 01:00 | 48.87337 | 2.40823 | 8400 ft | 275 kts | 188° |
| 2026-05-08 01:00 | 48.85458 | 2.40465 | 9174 ft | 277 kts | 189° |
| 2026-05-08 01:00 | 48.83578 | 2.39875 | 9893 ft | 279 kts | 205° |
| 2026-05-08 01:00 | 48.81952 | 2.38216 | 10465 ft | 287 kts | 228° |
| 2026-05-08 01:01 | 48.80896 | 2.35579 | 10806 ft | 304 kts | 253° |
| 2026-05-08 01:01 | 48.80661 | 2.32597 | 11122 ft | 321 kts | 270° |
| 2026-05-08 01:01 | 48.80772 | 2.29097 | 11575 ft | 337 kts | 272° |
| 2026-05-08 01:01 | 48.80923 | 2.25488 | 12037 ft | 352 kts | 272° |
| 2026-05-08 01:02 | 48.81082 | 2.21719 | 12545 ft | 366 kts | 272° |
| 2026-05-08 01:02 | 48.81246 | 2.17834 | 13238 ft | 373 kts | 272° |
| 2026-05-08 01:02 | 48.81410 | 2.13904 | 14011 ft | 378 kts | 272° |
| 2026-05-08 01:02 | 48.81575 | 2.09940 | 14794 ft | 383 kts | 272° |
| 2026-05-08 01:03 | 48.81742 | 2.05864 | 15595 ft | 387 kts | 272° |
| 2026-05-08 01:03 | 48.81908 | 2.01807 | 16354 ft | 391 kts | 272° |
| 2026-05-08 01:03 | 48.82073 | 1.97711 | 17106 ft | 396 kts | 272° |
| 2026-05-08 01:03 | 48.82240 | 1.93550 | 17831 ft | 400 kts | 272° |
| 2026-05-08 01:04 | 48.82409 | 1.89291 | 18544 ft | 405 kts | 272° |
| 2026-05-08 01:04 | 48.82576 | 1.85039 | 19249 ft | 409 kts | 272° |
| 2026-05-08 01:04 | 48.82742 | 1.80757 | 19981 ft | 413 kts | 272° |
| 2026-05-08 01:04 | 48.82910 | 1.76411 | 20689 ft | 416 kts | 272° |
| 2026-05-08 01:05 | 48.83077 | 1.72029 | 21385 ft | 420 kts | 272° |
| 2026-05-08 01:05 | 48.83246 | 1.67566 | 22064 ft | 423 kts | 272° |
| 2026-05-08 01:05 | 48.83413 | 1.63086 | 22710 ft | 427 kts | 272° |
| 2026-05-08 01:05 | 48.83579 | 1.58612 | 23350 ft | 430 kts | 272° |
| 2026-05-08 01:06 | 48.83747 | 1.54006 | 23976 ft | 434 kts | 272° |
| 2026-05-08 01:06 | 48.83912 | 1.49466 | 24554 ft | 438 kts | 272° |
| 2026-05-08 01:06 | 48.84078 | 1.44836 | 25116 ft | 441 kts | 272° |
| 2026-05-08 01:06 | 48.84244 | 1.40151 | 25686 ft | 445 kts | 271° |
| 2026-05-08 01:07 | 48.84410 | 1.35409 | 26230 ft | 448 kts | 271° |
| 2026-05-08 01:07 | 48.84575 | 1.30644 | 26780 ft | 452 kts | 271° |
| 2026-05-08 01:07 | 48.84737 | 1.25899 | 27311 ft | 455 kts | 271° |
| 2026-05-08 01:07 | 48.84899 | 1.21087 | 27814 ft | 459 kts | 271° |
| 2026-05-08 01:08 | 48.85062 | 1.16178 | 28318 ft | 462 kts | 271° |
| 2026-05-08 01:08 | 48.85222 | 1.11338 | 28805 ft | 465 kts | 271° |
| 2026-05-08 01:08 | 48.85383 | 1.06377 | 29305 ft | 468 kts | 271° |
| 2026-05-08 01:08 | 48.85543 | 1.01404 | 29961 ft | 467 kts | 271° |
| 2026-05-08 01:09 | 48.85700 | 0.96435 | 30721 ft | 464 kts | 271° |
| 2026-05-08 01:09 | 48.85853 | 0.91555 | 31397 ft | 460 kts | 271° |
| 2026-05-08 01:09 | 48.86000 | 0.86782 | 31962 ft | 458 kts | 271° |
| 2026-05-08 01:09 | 48.86149 | 0.81925 | 32463 ft | 457 kts | 271° |
| 2026-05-08 01:10 | 48.86293 | 0.77106 | 32933 ft | 456 kts | 271° |
| 2026-05-08 01:10 | 48.86434 | 0.72323 | 33393 ft | 454 kts | 271° |
| 2026-05-08 01:10 | 48.86574 | 0.67534 | 33853 ft | 452 kts | 271° |
| 2026-05-08 01:10 | 48.86711 | 0.62776 | 34262 ft | 450 kts | 271° |
| 2026-05-08 01:11 | 48.86846 | 0.58003 | 34621 ft | 450 kts | 271° |
| 2026-05-08 01:11 | 48.86978 | 0.53277 | 34896 ft | 449 kts | 271° |
| 2026-05-08 01:11 | 48.87108 | 0.48532 | 35143 ft | 450 kts | 271° |
| 2026-05-08 01:11 | 48.87236 | 0.43811 | 35398 ft | 449 kts | 271° |
| 2026-05-08 01:12 | 48.87362 | 0.39089 | 35652 ft | 448 kts | 271° |
| 2026-05-08 01:12 | 48.87486 | 0.34341 | 35899 ft | 447 kts | 270° |
| 2026-05-08 01:12 | 48.87608 | 0.29635 | 36124 ft | 447 kts | 270° |
| 2026-05-08 01:12 | 48.87728 | 0.24912 | 36337 ft | 446 kts | 270° |
| 2026-05-08 01:13 | 48.87846 | 0.20162 | 36534 ft | 446 kts | 270° |
| 2026-05-08 01:13 | 48.87961 | 0.15514 | 36703 ft | 446 kts | 270° |
| 2026-05-08 01:13 | 48.88074 | 0.10824 | 36819 ft | 447 kts | 271° |
| 2026-05-08 01:14 | 48.88298 | 0.01311 | 37045 ft | 448 kts | 271° |
| 2026-05-08 01:14 | 48.88405 | -0.03350 | 37178 ft | 447 kts | 271° |
| 2026-05-08 01:14 | 48.88512 | -0.08075 | 37272 ft | 448 kts | 271° |
| 2026-05-08 01:14 | 48.88616 | -0.12804 | 37383 ft | 448 kts | 271° |
| 2026-05-08 01:15 | 48.88720 | -0.17570 | 37502 ft | 448 kts | 271° |
| 2026-05-08 01:15 | 48.88820 | -0.22268 | 37613 ft | 447 kts | 271° |
| 2026-05-08 01:15 | 48.88919 | -0.26997 | 37733 ft | 447 kts | 271° |
| 2026-05-08 01:15 | 48.89015 | -0.31710 | 37845 ft | 447 kts | 271° |
| 2026-05-08 01:16 | 48.89110 | -0.36423 | 37937 ft | 447 kts | 271° |
| 2026-05-08 01:16 | 48.89294 | -0.45900 | 37999 ft | 447 kts | 271° |
| 2026-05-08 01:17 | 48.89469 | -0.55307 | 38002 ft | 447 kts | 271° |
| 2026-05-08 01:17 | 48.89639 | -0.64774 | 37999 ft | 446 kts | 271° |
| 2026-05-08 01:18 | 48.89798 | -0.74189 | 38003 ft | 447 kts | 270° |
| 2026-05-08 01:18 | 48.89952 | -0.83698 | 38002 ft | 446 kts | 270° |
| 2026-05-08 01:19 | 48.90097 | -0.93124 | 38003 ft | 446 kts | 270° |
| 2026-05-08 01:19 | 48.90233 | -1.02513 | 38009 ft | 446 kts | 270° |
| 2026-05-08 01:20 | 48.90363 | -1.11964 | 38001 ft | 445 kts | 270° |
| 2026-05-08 01:20 | 48.90484 | -1.21382 | 38003 ft | 445 kts | 270° |
| 2026-05-08 01:21 | 48.90597 | -1.30751 | 37945 ft | 443 kts | 270° |
| 2026-05-08 01:21 | 48.90703 | -1.40179 | 38001 ft | 445 kts | 270° |
| 2026-05-08 01:22 | 48.90801 | -1.49554 | 38002 ft | 446 kts | 270° |
| 2026-05-08 01:22 | 48.90892 | -1.59038 | 38010 ft | 446 kts | 270° |
| 2026-05-08 01:23 | 48.90974 | -1.68458 | 38016 ft | 446 kts | 270° |
| 2026-05-08 01:23 | 48.90471 | -1.77756 | 38010 ft | 444 kts | 257° |
| 2026-05-08 01:24 | 48.89074 | -1.86903 | 38013 ft | 445 kts | 256° |
| 2026-05-08 01:24 | 48.87632 | -1.96009 | 38014 ft | 446 kts | 256° |
| 2026-05-08 01:25 | 48.86160 | -2.05145 | 38007 ft | 445 kts | 256° |
| 2026-05-08 01:25 | 48.84675 | -2.14255 | 38006 ft | 445 kts | 256° |
| 2026-05-08 01:26 | 48.83188 | -2.23305 | 37997 ft | 444 kts | 256° |
| 2026-05-08 01:26 | 48.81685 | -2.32390 | 37994 ft | 445 kts | 256° |
| 2026-05-08 01:27 | 48.80177 | -2.41454 | 37990 ft | 444 kts | 256° |
| 2026-05-08 01:27 | 48.78656 | -2.50543 | 37988 ft | 443 kts | 256° |
| 2026-05-08 01:28 | 48.77140 | -2.59553 | 37981 ft | 443 kts | 256° |
| 2026-05-08 01:28 | 48.75603 | -2.68648 | 37987 ft | 443 kts | 256° |
| 2026-05-08 01:29 | 48.74070 | -2.77667 | 37982 ft | 443 kts | 256° |
| 2026-05-08 01:29 | 48.72532 | -2.86676 | 37983 ft | 443 kts | 256° |
| 2026-05-08 01:30 | 48.71044 | -2.95681 | 37977 ft | 441 kts | 261° |
| 2026-05-08 01:30 | 48.70124 | -3.04932 | 37996 ft | 443 kts | 262° |
| 2026-05-08 01:31 | 48.69237 | -3.14112 | 37985 ft | 440 kts | 262° |
| 2026-05-08 01:31 | 48.68341 | -3.23282 | 37995 ft | 440 kts | 262° |
| 2026-05-08 01:32 | 48.67448 | -3.32328 | 37989 ft | 439 kts | 262° |
| 2026-05-08 01:32 | 48.66533 | -3.41504 | 37985 ft | 440 kts | 262° |
| 2026-05-08 01:33 | 48.65617 | -3.50625 | 37990 ft | 439 kts | 262° |
| 2026-05-08 01:33 | 48.64693 | -3.59730 | 37985 ft | 440 kts | 262° |
| 2026-05-08 01:34 | 48.63757 | -3.68891 | 38002 ft | 439 kts | 261° |
| 2026-05-08 01:34 | 48.62820 | -3.77983 | 37990 ft | 437 kts | 261° |
| 2026-05-08 01:35 | 48.61877 | -3.87061 | 37993 ft | 437 kts | 261° |
| 2026-05-08 01:35 | 48.60929 | -3.96113 | 37986 ft | 437 kts | 262° |
| 2026-05-08 01:36 | 48.59972 | -4.05185 | 38003 ft | 436 kts | 262° |
| 2026-05-08 01:36 | 48.59011 | -4.14219 | 38002 ft | 435 kts | 262° |
| 2026-05-08 01:37 | 48.58041 | -4.23264 | 37983 ft | 437 kts | 262° |
| 2026-05-08 01:37 | 48.57072 | -4.32239 | 38020 ft | 437 kts | 262° |
| 2026-05-08 01:38 | 48.56084 | -4.41315 | 38005 ft | 436 kts | 262° |
| 2026-05-08 01:38 | 48.55099 | -4.50301 | 37992 ft | 436 kts | 262° |
| 2026-05-08 01:39 | 48.54099 | -4.59349 | 37988 ft | 435 kts | 262° |
| 2026-05-08 01:39 | 48.53102 | -4.68311 | 38003 ft | 436 kts | 261° |
| 2026-05-08 01:40 | 48.52096 | -4.77286 | 38000 ft | 434 kts | 261° |
| 2026-05-08 01:40 | 48.51081 | -4.86275 | 37986 ft | 436 kts | 261° |
| 2026-05-08 01:41 | 48.50063 | -4.95218 | 37992 ft | 435 kts | 261° |
| 2026-05-08 01:41 | 48.49032 | -5.04216 | 37984 ft | 435 kts | 261° |
| 2026-05-08 01:42 | 48.47999 | -5.13168 | 37989 ft | 434 kts | 261° |
| 2026-05-08 01:42 | 48.46959 | -5.22118 | 37991 ft | 434 kts | 261° |
| 2026-05-08 01:43 | 48.45923 | -5.30965 | 37994 ft | 434 kts | 261° |
| 2026-05-08 01:43 | 48.44865 | -5.39944 | 37979 ft | 434 kts | 261° |
| 2026-05-08 01:44 | 48.43809 | -5.48836 | 37981 ft | 434 kts | 261° |
| 2026-05-08 01:44 | 48.42741 | -5.57772 | 37982 ft | 434 kts | 261° |
| 2026-05-08 01:45 | 48.41665 | -5.66711 | 37974 ft | 434 kts | 261° |
| 2026-05-08 01:45 | 48.40589 | -5.75596 | 37986 ft | 432 kts | 260° |
| 2026-05-08 01:46 | 48.39505 | -5.84477 | 37976 ft | 433 kts | 260° |
| 2026-05-08 01:46 | 48.38419 | -5.93320 | 37971 ft | 430 kts | 260° |
| 2026-05-08 01:47 | 48.37326 | -6.02163 | 37976 ft | 432 kts | 260° |
| 2026-05-08 01:47 | 48.36227 | -6.10997 | 37966 ft | 432 kts | 260° |
| 2026-05-08 01:48 | 48.34560 | -6.24285 | 37976 ft | 432 kts | 260° |
| 2026-05-08 01:48 | 48.33439 | -6.33140 | 37977 ft | 432 kts | 260° |
| 2026-05-08 01:49 | 48.32314 | -6.41979 | 37967 ft | 433 kts | 260° |
| 2026-05-08 01:49 | 48.31175 | -6.50871 | 37978 ft | 433 kts | 260° |
| 2026-05-08 01:50 | 48.30030 | -6.59739 | 37972 ft | 433 kts | 260° |
| 2026-05-08 01:50 | 48.28888 | -6.68544 | 37970 ft | 434 kts | 259° |
| 2026-05-08 01:51 | 48.27727 | -6.77432 | 37976 ft | 433 kts | 259° |
| 2026-05-08 01:51 | 48.26569 | -6.86242 | 37979 ft | 434 kts | 259° |
| 2026-05-08 01:52 | 48.25399 | -6.95083 | 37974 ft | 433 kts | 259° |
| 2026-05-08 01:52 | 48.24221 | -7.03934 | 37972 ft | 434 kts | 259° |
| 2026-05-08 01:53 | 48.23043 | -7.12731 | 37976 ft | 432 kts | 259° |
| 2026-05-08 01:53 | 48.21862 | -7.21494 | 37964 ft | 431 kts | 259° |
| 2026-05-08 01:54 | 48.20671 | -7.30280 | 37967 ft | 431 kts | 259° |
| 2026-05-08 01:54 | 48.19470 | -7.39083 | 37965 ft | 430 kts | 259° |
| 2026-05-08 01:55 | 48.18267 | -7.47849 | 37965 ft | 430 kts | 259° |
| 2026-05-08 01:55 | 48.17067 | -7.56543 | 37962 ft | 429 kts | 259° |
| 2026-05-08 01:56 | 48.15852 | -7.65291 | 37956 ft | 429 kts | 258° |
| 2026-05-08 01:56 | 48.14629 | -7.74040 | 37964 ft | 430 kts | 258° |
| 2026-05-08 01:57 | 48.13413 | -7.82698 | 37958 ft | 427 kts | 258° |
| 2026-05-08 01:57 | 48.12178 | -7.91432 | 37960 ft | 427 kts | 258° |
| 2026-05-08 01:58 | 48.10948 | -8.00085 | 37951 ft | 428 kts | 258° |
| 2026-05-08 01:58 | 48.09702 | -8.08799 | 37950 ft | 428 kts | 258° |
| 2026-05-08 01:59 | 48.08464 | -8.17405 | 37951 ft | 426 kts | 258° |
| 2026-05-08 01:59 | 48.07209 | -8.26088 | 37960 ft | 427 kts | 258° |
| 2026-05-08 02:00 | 48.05958 | -8.34687 | 37955 ft | 426 kts | 258° |
| 2026-05-08 02:00 | 48.04697 | -8.43312 | 37957 ft | 426 kts | 258° |
| 2026-05-08 02:01 | 48.03422 | -8.51974 | 37953 ft | 427 kts | 258° |
| 2026-05-08 02:01 | 48.02148 | -8.60586 | 37958 ft | 426 kts | 258° |
| 2026-05-08 02:02 | 48.00869 | -8.69191 | 37957 ft | 426 kts | 257° |
| 2026-05-08 02:02 | 47.99606 | -8.77785 | 37962 ft | 426 kts | 258° |
| 2026-05-08 02:03 | 47.98484 | -8.86446 | 37953 ft | 426 kts | 258° |
| 2026-05-08 02:03 | 47.97361 | -8.95064 | 37953 ft | 426 kts | 258° |
| 2026-05-08 02:04 | 47.96218 | -9.03731 | 37951 ft | 426 kts | 258° |
| 2026-05-08 02:04 | 47.95070 | -9.12370 | 37945 ft | 427 kts | 258° |
| 2026-05-08 02:05 | 47.93906 | -9.21062 | 37945 ft | 426 kts | 258° |
| 2026-05-08 02:05 | 47.92747 | -9.29662 | 37942 ft | 426 kts | 258° |
| 2026-05-08 02:06 | 47.91575 | -9.38303 | 37934 ft | 428 kts | 257° |
| 2026-05-08 02:06 | 47.90387 | -9.47010 | 37937 ft | 428 kts | 258° |
| 2026-05-08 02:07 | 47.89205 | -9.55619 | 37937 ft | 427 kts | 257° |
| 2026-05-08 02:07 | 47.88008 | -9.64287 | 37935 ft | 428 kts | 258° |
| 2026-05-08 02:08 | 47.86808 | -9.72923 | 37935 ft | 427 kts | 257° |
| 2026-05-08 02:08 | 47.85601 | -9.81562 | 37934 ft | 429 kts | 257° |
| 2026-05-08 02:09 | 47.84375 | -9.90286 | 37931 ft | 429 kts | 257° |
| 2026-05-08 02:09 | 47.83151 | -9.98942 | 37928 ft | 429 kts | 257° |
| 2026-05-08 02:10 | 47.81918 | -10.07614 | 37929 ft | 429 kts | 257° |
| 2026-05-08 02:10 | 47.80684 | -10.16241 | 37920 ft | 431 kts | 257° |
| 2026-05-08 02:11 | 47.79431 | -10.24954 | 37926 ft | 431 kts | 256° |
| 2026-05-08 02:11 | 47.78175 | -10.33636 | 37927 ft | 429 kts | 256° |
| 2026-05-08 02:12 | 47.76915 | -10.42299 | 37930 ft | 431 kts | 256° |
| 2026-05-08 02:12 | 47.75650 | -10.50948 | 37931 ft | 430 kts | 256° |
| 2026-05-08 02:13 | 47.74380 | -10.59575 | 37938 ft | 431 kts | 256° |
| 2026-05-08 02:13 | 47.73096 | -10.68250 | 37939 ft | 431 kts | 256° |
| 2026-05-08 02:14 | 47.71802 | -10.76950 | 37948 ft | 432 kts | 255° |
| 2026-05-08 02:14 | 47.70500 | -10.85653 | 37939 ft | 433 kts | 256° |
| 2026-05-08 02:15 | 47.69194 | -10.94337 | 37945 ft | 432 kts | 255° |
| 2026-05-08 02:15 | 47.67883 | -11.03003 | 37947 ft | 432 kts | 255° |
| 2026-05-08 02:16 | 47.66564 | -11.11677 | 37936 ft | 432 kts | 255° |
| 2026-05-08 02:16 | 47.65236 | -11.20361 | 37926 ft | 433 kts | 255° |
| 2026-05-08 02:17 | 47.63907 | -11.29005 | 37942 ft | 433 kts | 255° |
| 2026-05-08 02:17 | 47.62557 | -11.37736 | 37938 ft | 435 kts | 255° |
| 2026-05-08 02:18 | 47.61209 | -11.46408 | 37935 ft | 434 kts | 255° |
| 2026-05-08 02:18 | 47.59853 | -11.55085 | 37937 ft | 433 kts | 255° |
| 2026-05-08 02:19 | 47.58494 | -11.63736 | 37941 ft | 434 kts | 255° |
| 2026-05-08 02:19 | 47.57113 | -11.72482 | 37938 ft | 435 kts | 254° |
| 2026-05-08 02:20 | 47.55739 | -11.81134 | 37938 ft | 434 kts | 254° |
| 2026-05-08 02:20 | 47.54350 | -11.89836 | 37940 ft | 435 kts | 254° |
| 2026-05-08 02:21 | 47.52958 | -11.98513 | 37940 ft | 438 kts | 254° |
| 2026-05-08 02:21 | 47.51549 | -12.07249 | 37945 ft | 435 kts | 254° |
| 2026-05-08 02:22 | 47.50142 | -12.15925 | 37938 ft | 435 kts | 254° |
| 2026-05-08 02:22 | 47.48732 | -12.24576 | 37936 ft | 437 kts | 254° |
| 2026-05-08 02:23 | 47.47300 | -12.33315 | 37930 ft | 437 kts | 254° |
| 2026-05-08 02:23 | 47.45873 | -12.41979 | 37935 ft | 438 kts | 254° |
| 2026-05-08 02:24 | 47.44426 | -12.50720 | 37926 ft | 438 kts | 254° |
| 2026-05-08 02:24 | 47.42978 | -12.59426 | 37932 ft | 438 kts | 254° |
| 2026-05-08 02:25 | 47.41523 | -12.68127 | 37940 ft | 438 kts | 253° |
| 2026-05-08 02:25 | 47.40060 | -12.76835 | 37934 ft | 439 kts | 253° |
| 2026-05-08 02:26 | 47.38589 | -12.85543 | 37927 ft | 438 kts | 253° |
| 2026-05-08 02:26 | 47.37106 | -12.94278 | 37927 ft | 440 kts | 253° |
| 2026-05-08 02:27 | 47.35629 | -13.02933 | 37926 ft | 439 kts | 253° |
| 2026-05-08 02:27 | 47.34127 | -13.11691 | 37919 ft | 440 kts | 253° |
| 2026-05-08 02:28 | 47.32623 | -13.20417 | 37912 ft | 441 kts | 253° |
| 2026-05-08 02:28 | 47.31118 | -13.29108 | 37904 ft | 441 kts | 253° |
| 2026-05-08 02:29 | 47.29596 | -13.37855 | 37915 ft | 442 kts | 253° |
| 2026-05-08 02:29 | 47.28064 | -13.46613 | 37914 ft | 443 kts | 253° |
| 2026-05-08 02:30 | 47.26527 | -13.55358 | 37902 ft | 442 kts | 253° |
| 2026-05-08 02:30 | 47.24988 | -13.64069 | 37900 ft | 442 kts | 253° |
| 2026-05-08 02:31 | 47.23441 | -13.72785 | 37912 ft | 441 kts | 252° |
| 2026-05-08 02:31 | 47.21886 | -13.81502 | 37899 ft | 442 kts | 252° |
| 2026-05-08 02:32 | 47.20319 | -13.90248 | 37909 ft | 445 kts | 252° |
| 2026-05-08 02:32 | 47.18747 | -13.98977 | 37903 ft | 445 kts | 252° |
| 2026-05-08 02:33 | 47.17159 | -14.07754 | 37909 ft | 447 kts | 252° |
| 2026-05-08 02:33 | 47.15564 | -14.16524 | 37907 ft | 446 kts | 252° |
| 2026-05-08 02:34 | 47.13963 | -14.25286 | 37906 ft | 447 kts | 252° |
| 2026-05-08 02:34 | 47.12349 | -14.34079 | 37899 ft | 446 kts | 252° |
| 2026-05-08 02:35 | 47.10722 | -14.42895 | 37906 ft | 448 kts | 252° |
| 2026-05-08 02:35 | 47.09094 | -14.51683 | 37910 ft | 448 kts | 252° |
| 2026-05-08 02:36 | 47.07458 | -14.60464 | 37901 ft | 450 kts | 252° |
| 2026-05-08 02:36 | 47.05808 | -14.69284 | 37908 ft | 451 kts | 251° |
| 2026-05-08 02:37 | 47.04150 | -14.78104 | 37909 ft | 450 kts | 252° |
| 2026-05-08 02:37 | 47.02477 | -14.86964 | 37900 ft | 451 kts | 252° |
| 2026-05-08 02:38 | 47.00803 | -14.95790 | 37905 ft | 451 kts | 252° |
| 2026-05-08 02:38 | 46.99158 | -15.04658 | 37903 ft | 453 kts | 253° |
| 2026-05-08 02:39 | 46.97610 | -15.13532 | 37905 ft | 454 kts | 253° |
| 2026-05-08 02:39 | 46.96043 | -15.22451 | 37905 ft | 455 kts | 253° |
| 2026-05-08 02:40 | 46.94459 | -15.31395 | 37901 ft | 455 kts | 253° |
| 2026-05-08 02:40 | 46.92870 | -15.40320 | 37905 ft | 455 kts | 253° |
| 2026-05-08 02:41 | 46.91274 | -15.49227 | 37898 ft | 455 kts | 253° |
| 2026-05-08 02:41 | 46.89663 | -15.58178 | 37901 ft | 455 kts | 253° |
| 2026-05-08 02:42 | 46.88046 | -15.67108 | 37893 ft | 456 kts | 252° |
| 2026-05-08 02:42 | 46.86424 | -15.76027 | 37886 ft | 456 kts | 252° |
| 2026-05-08 02:43 | 46.84790 | -15.84968 | 37898 ft | 457 kts | 252° |
| 2026-05-08 02:43 | 46.83155 | -15.93871 | 37888 ft | 457 kts | 252° |
| 2026-05-08 02:44 | 46.81500 | -16.02835 | 37885 ft | 457 kts | 253° |
| 2026-05-08 02:44 | 46.79850 | -16.11733 | 37866 ft | 457 kts | 253° |
| 2026-05-08 02:45 | 46.78189 | -16.20649 | 37893 ft | 455 kts | 253° |
| 2026-05-08 02:45 | 46.76527 | -16.29522 | 37893 ft | 457 kts | 253° |
| 2026-05-08 02:46 | 46.74858 | -16.38395 | 37884 ft | 458 kts | 253° |
| 2026-05-08 02:46 | 46.73169 | -16.47330 | 37893 ft | 458 kts | 253° |
| 2026-05-08 02:47 | 46.71481 | -16.56219 | 37897 ft | 458 kts | 253° |
| 2026-05-08 02:47 | 46.69773 | -16.65172 | 37907 ft | 460 kts | 252° |
| 2026-05-08 02:48 | 46.68064 | -16.74086 | 37896 ft | 459 kts | 252° |
| 2026-05-08 02:48 | 46.66341 | -16.83028 | 37894 ft | 459 kts | 252° |
| 2026-05-08 02:49 | 46.64627 | -16.91887 | 37899 ft | 458 kts | 252° |
| 2026-05-08 02:49 | 46.62885 | -17.00846 | 37900 ft | 460 kts | 252° |
| 2026-05-08 02:50 | 46.61146 | -17.09750 | 37865 ft | 460 kts | 252° |
| 2026-05-08 02:50 | 46.59400 | -17.18650 | 37906 ft | 459 kts | 252° |
| 2026-05-08 02:51 | 46.57641 | -17.27575 | 37906 ft | 460 kts | 252° |
| 2026-05-08 02:51 | 46.55878 | -17.36478 | 37895 ft | 460 kts | 252° |
| 2026-05-08 02:52 | 46.54108 | -17.45374 | 37891 ft | 461 kts | 253° |
| 2026-05-08 02:52 | 46.52339 | -17.54229 | 37898 ft | 459 kts | 253° |
| 2026-05-08 02:53 | 46.50548 | -17.63147 | 37890 ft | 460 kts | 253° |
| 2026-05-08 02:53 | 46.48764 | -17.71996 | 37895 ft | 460 kts | 252° |
| 2026-05-08 02:54 | 46.46960 | -17.80900 | 37898 ft | 461 kts | 252° |
| 2026-05-08 02:54 | 46.45155 | -17.89776 | 37886 ft | 461 kts | 252° |
| 2026-05-08 02:55 | 46.42419 | -18.03145 | 37895 ft | 462 kts | 252° |
| 2026-05-08 02:56 | 46.40590 | -18.12036 | 37890 ft | 462 kts | 252° |
| 2026-05-08 02:56 | 46.38748 | -18.20951 | 37890 ft | 462 kts | 252° |
| 2026-05-08 02:57 | 46.36905 | -18.29831 | 37885 ft | 461 kts | 252° |
| 2026-05-08 02:57 | 46.35069 | -18.38636 | 37879 ft | 462 kts | 252° |
| 2026-05-08 02:58 | 46.33210 | -18.47516 | 37887 ft | 463 kts | 252° |
| 2026-05-08 02:58 | 46.31347 | -18.56372 | 37882 ft | 462 kts | 252° |
| 2026-05-08 02:59 | 46.29470 | -18.65259 | 37883 ft | 463 kts | 252° |
| 2026-05-08 02:59 | 46.27591 | -18.74115 | 37877 ft | 463 kts | 252° |
| 2026-05-08 03:00 | 46.25704 | -18.82974 | 37883 ft | 462 kts | 252° |
| 2026-05-08 03:00 | 46.23810 | -18.91823 | 37887 ft | 462 kts | 252° |
| 2026-05-08 03:01 | 46.21910 | -19.00666 | 37888 ft | 463 kts | 252° |
| 2026-05-08 03:01 | 46.20002 | -19.09506 | 37885 ft | 463 kts | 252° |
| 2026-05-08 03:02 | 46.18090 | -19.18324 | 37879 ft | 463 kts | 252° |
| 2026-05-08 03:02 | 46.16165 | -19.27170 | 37879 ft | 463 kts | 252° |
| 2026-05-08 03:03 | 46.14231 | -19.36019 | 37884 ft | 461 kts | 252° |
| 2026-05-08 03:03 | 46.12306 | -19.44787 | 37891 ft | 462 kts | 252° |
| 2026-05-08 03:04 | 46.10371 | -19.53566 | 37887 ft | 461 kts | 252° |
| 2026-05-08 03:04 | 46.08429 | -19.62340 | 37885 ft | 462 kts | 253° |
| 2026-05-08 03:05 | 46.06483 | -19.71093 | 37890 ft | 462 kts | 252° |
| 2026-05-08 03:05 | 46.04523 | -19.79875 | 37888 ft | 462 kts | 252° |
| 2026-05-08 03:06 | 46.02549 | -19.88682 | 37886 ft | 463 kts | 252° |
| 2026-05-08 03:06 | 46.00467 | -19.97423 | 37884 ft | 464 kts | 246° |
| 2026-05-08 03:07 | 45.97124 | -20.05366 | 37885 ft | 468 kts | 236° |
| 2026-05-08 03:07 | 45.93363 | -20.13003 | 37884 ft | 468 kts | 235° |
| 2026-05-08 03:08 | 45.89596 | -20.20548 | 37884 ft | 467 kts | 235° |
| 2026-05-08 03:08 | 45.85780 | -20.28128 | 37884 ft | 468 kts | 235° |
| 2026-05-08 03:09 | 45.81978 | -20.35638 | 37881 ft | 468 kts | 235° |
| 2026-05-08 03:09 | 45.78146 | -20.43177 | 37880 ft | 468 kts | 235° |
| 2026-05-08 03:10 | 45.74333 | -20.50652 | 37876 ft | 469 kts | 236° |
| 2026-05-08 03:10 | 45.70474 | -20.58193 | 37878 ft | 469 kts | 236° |
| 2026-05-08 03:11 | 45.66626 | -20.65691 | 37879 ft | 469 kts | 234° |
| 2026-05-08 03:11 | 45.62772 | -20.73181 | 37882 ft | 470 kts | 235° |
| 2026-05-08 03:12 | 45.58916 | -20.80655 | 37878 ft | 471 kts | 235° |
| 2026-05-08 03:12 | 45.55017 | -20.88192 | 37879 ft | 472 kts | 235° |
| 2026-05-08 03:13 | 45.51121 | -20.95702 | 37879 ft | 471 kts | 235° |
| 2026-05-08 03:13 | 45.47248 | -21.03148 | 37879 ft | 472 kts | 235° |
| 2026-05-08 03:14 | 45.43335 | -21.10651 | 37878 ft | 472 kts | 235° |
| 2026-05-08 03:14 | 45.39429 | -21.18121 | 37881 ft | 472 kts | 235° |
| 2026-05-08 03:15 | 45.35496 | -21.25623 | 37876 ft | 473 kts | 236° |
| 2026-05-08 03:15 | 45.31576 | -21.33083 | 37886 ft | 474 kts | 236° |
| 2026-05-08 03:16 | 45.27628 | -21.40574 | 37883 ft | 475 kts | 235° |
| 2026-05-08 03:16 | 45.23680 | -21.48044 | 37883 ft | 475 kts | 236° |
| 2026-05-08 03:17 | 45.19740 | -21.55481 | 37886 ft | 475 kts | 236° |
| 2026-05-08 03:17 | 45.15778 | -21.62940 | 37886 ft | 475 kts | 236° |
| 2026-05-08 03:18 | 45.11781 | -21.70446 | 37885 ft | 475 kts | 235° |
| 2026-05-08 03:18 | 45.07799 | -21.77904 | 37889 ft | 478 kts | 235° |
| 2026-05-08 03:19 | 45.03813 | -21.85349 | 37891 ft | 478 kts | 235° |
| 2026-05-08 03:19 | 44.99816 | -21.92796 | 37892 ft | 478 kts | 235° |
| 2026-05-08 03:20 | 44.95810 | -22.00239 | 37889 ft | 478 kts | 235° |
| 2026-05-08 03:20 | 44.91798 | -22.07673 | 37895 ft | 477 kts | 235° |
| 2026-05-08 03:21 | 44.87769 | -22.15123 | 37890 ft | 479 kts | 235° |
| 2026-05-08 03:21 | 44.83736 | -22.22559 | 37888 ft | 479 kts | 236° |
| 2026-05-08 03:22 | 44.79688 | -22.30002 | 37886 ft | 479 kts | 236° |
| 2026-05-08 03:22 | 44.75649 | -22.37411 | 37890 ft | 480 kts | 236° |
| 2026-05-08 03:23 | 44.71579 | -22.44857 | 37884 ft | 480 kts | 236° |
| 2026-05-08 03:23 | 44.67506 | -22.52288 | 37882 ft | 482 kts | 236° |
| 2026-05-08 03:24 | 44.63419 | -22.59727 | 37880 ft | 481 kts | 236° |
| 2026-05-08 03:24 | 44.59326 | -22.67157 | 37880 ft | 483 kts | 235° |
| 2026-05-08 03:25 | 44.55249 | -22.74538 | 37876 ft | 481 kts | 235° |
| 2026-05-08 03:25 | 44.51162 | -22.81921 | 37878 ft | 483 kts | 235° |
| 2026-05-08 03:26 | 44.47025 | -22.89372 | 37877 ft | 483 kts | 235° |
| 2026-05-08 03:26 | 44.42907 | -22.96770 | 37882 ft | 485 kts | 236° |
| 2026-05-08 03:27 | 44.38771 | -23.04182 | 37879 ft | 484 kts | 236° |
| 2026-05-08 03:27 | 44.34643 | -23.11562 | 37880 ft | 485 kts | 236° |
| 2026-05-08 03:28 | 44.30498 | -23.18952 | 37880 ft | 484 kts | 236° |
| 2026-05-08 03:28 | 44.26333 | -23.26358 | 37882 ft | 486 kts | 236° |
| 2026-05-08 03:29 | 44.22152 | -23.33775 | 37887 ft | 486 kts | 236° |
| 2026-05-08 03:29 | 44.17973 | -23.41167 | 37884 ft | 486 kts | 236° |
| 2026-05-08 03:30 | 44.11698 | -23.52234 | 37887 ft | 487 kts | 236° |
| 2026-05-08 03:31 | 44.03271 | -23.67029 | 37889 ft | 488 kts | 235° |
| 2026-05-08 03:32 | 43.96917 | -23.78136 | 37888 ft | 489 kts | 235° |
| 2026-05-08 03:32 | 43.92679 | -23.85520 | 37895 ft | 490 kts | 235° |
| 2026-05-08 03:33 | 43.88434 | -23.92898 | 37885 ft | 492 kts | 236° |
| 2026-05-08 03:33 | 43.84174 | -24.00283 | 37881 ft | 492 kts | 236° |
| 2026-05-08 03:34 | 43.79899 | -24.07673 | 37885 ft | 493 kts | 236° |
| 2026-05-08 03:34 | 43.75629 | -24.15039 | 37884 ft | 494 kts | 236° |
| 2026-05-08 03:35 | 43.71334 | -24.22426 | 37889 ft | 493 kts | 236° |
| 2026-05-08 03:35 | 43.67065 | -24.29751 | 37889 ft | 493 kts | 236° |
| 2026-05-08 03:36 | 43.62773 | -24.37096 | 37893 ft | 491 kts | 236° |
| 2026-05-08 03:36 | 43.58495 | -24.44402 | 37888 ft | 493 kts | 236° |
| 2026-05-08 03:37 | 43.54187 | -24.51739 | 37875 ft | 492 kts | 237° |
| 2026-05-08 03:37 | 43.49879 | -24.59059 | 37893 ft | 495 kts | 236° |
| 2026-05-08 03:38 | 43.45548 | -24.66396 | 37891 ft | 494 kts | 236° |
| 2026-05-08 03:38 | 43.41194 | -24.73756 | 37901 ft | 496 kts | 236° |
| 2026-05-08 03:39 | 43.36853 | -24.81074 | 37895 ft | 497 kts | 236° |
| 2026-05-08 03:39 | 43.32484 | -24.88422 | 37899 ft | 498 kts | 236° |
| 2026-05-08 03:40 | 43.28119 | -24.95742 | 37913 ft | 496 kts | 236° |
| 2026-05-08 03:40 | 43.23756 | -25.03045 | 37900 ft | 499 kts | 236° |
| 2026-05-08 03:41 | 43.19367 | -25.10370 | 37897 ft | 496 kts | 236° |
| 2026-05-08 03:41 | 43.14994 | -25.17652 | 37920 ft | 499 kts | 236° |
| 2026-05-08 03:42 | 43.10587 | -25.24970 | 37924 ft | 497 kts | 236° |
| 2026-05-08 03:42 | 43.06168 | -25.32291 | 37929 ft | 499 kts | 236° |
| 2026-05-08 03:43 | 43.01747 | -25.39598 | 37936 ft | 500 kts | 236° |
| 2026-05-08 03:43 | 42.97326 | -25.46885 | 37929 ft | 499 kts | 237° |
| 2026-05-08 03:44 | 42.92897 | -25.54167 | 37923 ft | 498 kts | 236° |
| 2026-05-08 03:44 | 42.88483 | -25.61408 | 37907 ft | 499 kts | 236° |
| 2026-05-08 03:45 | 42.84042 | -25.68674 | 37913 ft | 499 kts | 236° |
| 2026-05-08 03:45 | 42.79622 | -25.75889 | 37927 ft | 499 kts | 236° |
| 2026-05-08 03:46 | 42.75196 | -25.83095 | 37930 ft | 498 kts | 236° |
| 2026-05-08 03:46 | 42.70749 | -25.90319 | 37928 ft | 500 kts | 236° |
| 2026-05-08 03:47 | 42.66266 | -25.97585 | 37939 ft | 501 kts | 236° |
| 2026-05-08 03:47 | 42.61800 | -26.04802 | 37929 ft | 500 kts | 236° |
| 2026-05-08 03:48 | 42.57339 | -26.11995 | 37940 ft | 502 kts | 236° |
| 2026-05-08 03:48 | 42.52876 | -26.19172 | 37908 ft | 500 kts | 236° |
| 2026-05-08 03:49 | 42.48388 | -26.26374 | 37917 ft | 500 kts | 236° |
| 2026-05-08 03:49 | 42.43867 | -26.33610 | 37940 ft | 501 kts | 236° |
| 2026-05-08 03:50 | 42.39388 | -26.40762 | 37927 ft | 501 kts | 236° |
| 2026-05-08 03:50 | 42.34882 | -26.47938 | 37965 ft | 500 kts | 236° |
| 2026-05-08 03:51 | 42.30396 | -26.55068 | 37954 ft | 501 kts | 236° |
| 2026-05-08 03:51 | 42.25892 | -26.62207 | 37942 ft | 501 kts | 236° |
| 2026-05-08 03:52 | 42.21352 | -26.69386 | 37959 ft | 503 kts | 236° |
| 2026-05-08 03:52 | 42.16837 | -26.76507 | 37954 ft | 501 kts | 236° |
| 2026-05-08 03:53 | 42.12305 | -26.83639 | 37961 ft | 500 kts | 236° |
| 2026-05-08 03:53 | 42.07795 | -26.90718 | 37971 ft | 499 kts | 236° |
| 2026-05-08 03:54 | 42.03280 | -26.97792 | 37977 ft | 501 kts | 236° |
| 2026-05-08 03:54 | 41.98743 | -27.04880 | 37955 ft | 501 kts | 236° |
| 2026-05-08 03:55 | 41.94194 | -27.11972 | 37962 ft | 501 kts | 236° |
| 2026-05-08 03:55 | 41.89652 | -27.19035 | 37992 ft | 502 kts | 236° |
| 2026-05-08 03:56 | 41.85075 | -27.26135 | 37950 ft | 502 kts | 236° |
| 2026-05-08 03:56 | 41.80534 | -27.33163 | 37939 ft | 501 kts | 236° |
| 2026-05-08 03:57 | 41.75970 | -27.40210 | 37964 ft | 502 kts | 236° |
| 2026-05-08 03:57 | 41.71401 | -27.47248 | 37962 ft | 502 kts | 236° |
| 2026-05-08 03:58 | 41.66806 | -27.54309 | 37962 ft | 502 kts | 236° |
| 2026-05-08 03:58 | 41.62248 | -27.61296 | 37980 ft | 501 kts | 235° |
| 2026-05-08 03:59 | 41.57671 | -27.68298 | 37972 ft | 503 kts | 235° |
| 2026-05-08 03:59 | 41.53066 | -27.75324 | 37965 ft | 502 kts | 235° |
| 2026-05-08 04:00 | 41.48474 | -27.82316 | 37962 ft | 504 kts | 235° |
| 2026-05-08 04:00 | 41.43879 | -27.89293 | 37987 ft | 501 kts | 234° |
| 2026-05-08 04:01 | 41.39272 | -27.96272 | 37986 ft | 501 kts | 235° |
| 2026-05-08 04:01 | 41.34671 | -28.03230 | 37992 ft | 502 kts | 235° |
| 2026-05-08 04:02 | 41.30069 | -28.10168 | 37987 ft | 500 kts | 235° |
| 2026-05-08 04:02 | 41.25441 | -28.17133 | 37996 ft | 501 kts | 234° |
| 2026-05-08 04:03 | 41.20824 | -28.24066 | 37987 ft | 503 kts | 235° |
| 2026-05-08 04:03 | 41.13909 | -28.34415 | 37998 ft | 500 kts | 234° |
| 2026-05-08 04:04 | 41.09291 | -28.41309 | 37990 ft | 502 kts | 234° |
| 2026-05-08 04:04 | 41.04652 | -28.48217 | 37990 ft | 500 kts | 234° |
| 2026-05-08 04:05 | 41.00024 | -28.55093 | 38008 ft | 501 kts | 235° |
| 2026-05-08 04:05 | 40.95420 | -28.61918 | 37993 ft | 499 kts | 235° |
| 2026-05-08 04:06 | 40.90786 | -28.68773 | 38009 ft | 503 kts | 234° |
| 2026-05-08 04:06 | 40.86116 | -28.75663 | 37996 ft | 499 kts | 234° |
| 2026-05-08 04:07 | 40.81488 | -28.82476 | 38003 ft | 499 kts | 234° |
| 2026-05-08 04:07 | 40.76850 | -28.89291 | 38004 ft | 500 kts | 234° |
| 2026-05-08 04:08 | 40.72224 | -28.96071 | 37999 ft | 499 kts | 234° |
| 2026-05-08 04:08 | 40.67617 | -29.02806 | 38012 ft | 497 kts | 234° |
| 2026-05-08 04:09 | 40.62968 | -29.09590 | 38003 ft | 497 kts | 234° |
| 2026-05-08 04:09 | 40.58357 | -29.16305 | 38016 ft | 499 kts | 234° |
| 2026-05-08 04:10 | 40.53688 | -29.23087 | 38018 ft | 498 kts | 234° |
| 2026-05-08 04:10 | 40.49068 | -29.29782 | 38010 ft | 497 kts | 234° |
| 2026-05-08 04:11 | 40.44413 | -29.36515 | 38016 ft | 498 kts | 234° |
| 2026-05-08 04:11 | 40.39783 | -29.43195 | 38022 ft | 496 kts | 234° |
| 2026-05-08 04:12 | 40.35126 | -29.49899 | 38024 ft | 496 kts | 234° |
| 2026-05-08 04:12 | 40.30483 | -29.56570 | 38034 ft | 496 kts | 234° |
| 2026-05-08 04:13 | 40.25847 | -29.63216 | 38049 ft | 497 kts | 234° |
| 2026-05-08 04:13 | 40.21184 | -29.69884 | 38046 ft | 496 kts | 233° |
| 2026-05-08 04:14 | 40.16538 | -29.76515 | 38045 ft | 495 kts | 233° |
| 2026-05-08 04:14 | 40.11862 | -29.83174 | 38053 ft | 496 kts | 233° |
| 2026-05-08 04:15 | 40.07190 | -29.89814 | 38048 ft | 496 kts | 233° |
| 2026-05-08 04:15 | 40.02548 | -29.96394 | 38065 ft | 494 kts | 233° |
| 2026-05-08 04:16 | 39.97977 | -30.03071 | 38078 ft | 490 kts | 239° |
| 2026-05-08 04:16 | 39.93857 | -30.10059 | 38083 ft | 488 kts | 239° |
| 2026-05-08 04:17 | 39.89702 | -30.17071 | 38073 ft | 489 kts | 239° |
| 2026-05-08 04:17 | 39.85542 | -30.24030 | 38055 ft | 488 kts | 239° |
| 2026-05-08 04:18 | 39.81366 | -30.30979 | 38061 ft | 486 kts | 239° |
| 2026-05-08 04:18 | 39.77212 | -30.37865 | 38060 ft | 487 kts | 239° |
| 2026-05-08 04:19 | 39.73016 | -30.44798 | 38068 ft | 486 kts | 239° |
| 2026-05-08 04:19 | 39.68841 | -30.51678 | 38077 ft | 487 kts | 239° |
| 2026-05-08 04:20 | 39.64673 | -30.58528 | 38077 ft | 484 kts | 239° |
| 2026-05-08 04:20 | 39.60479 | -30.65407 | 38084 ft | 484 kts | 238° |
| 2026-05-08 04:21 | 39.56318 | -30.72217 | 38097 ft | 484 kts | 238° |
| 2026-05-08 04:21 | 39.52117 | -30.79077 | 38098 ft | 485 kts | 238° |
| 2026-05-08 04:22 | 39.47947 | -30.85867 | 38101 ft | 482 kts | 238° |
| 2026-05-08 04:22 | 39.43777 | -30.92648 | 38112 ft | 483 kts | 238° |
| 2026-05-08 04:23 | 39.39582 | -30.99453 | 38113 ft | 484 kts | 238° |
| 2026-05-08 04:23 | 39.35402 | -31.06218 | 38113 ft | 480 kts | 238° |
| 2026-05-08 04:24 | 39.31232 | -31.12955 | 38117 ft | 484 kts | 238° |
| 2026-05-08 04:24 | 39.27052 | -31.19692 | 38124 ft | 481 kts | 238° |
| 2026-05-08 04:25 | 39.22859 | -31.26436 | 38124 ft | 483 kts | 238° |
| 2026-05-08 04:25 | 39.18694 | -31.33121 | 38129 ft | 482 kts | 238° |
| 2026-05-08 04:26 | 39.14483 | -31.39863 | 38132 ft | 479 kts | 238° |
| 2026-05-08 04:26 | 39.10322 | -31.46515 | 38134 ft | 478 kts | 238° |
| 2026-05-08 04:27 | 39.06142 | -31.53184 | 38144 ft | 481 kts | 238° |
| 2026-05-08 04:27 | 39.01960 | -31.59837 | 38157 ft | 478 kts | 238° |
| 2026-05-08 04:28 | 38.97780 | -31.66477 | 38147 ft | 479 kts | 238° |
| 2026-05-08 04:28 | 38.93606 | -31.73092 | 38146 ft | 477 kts | 237° |
| 2026-05-08 04:29 | 38.89442 | -31.79678 | 38144 ft | 477 kts | 238° |
| 2026-05-08 04:29 | 38.85281 | -31.86246 | 38148 ft | 476 kts | 238° |
| 2026-05-08 04:30 | 38.81091 | -31.92847 | 38139 ft | 478 kts | 238° |
| 2026-05-08 04:30 | 38.76936 | -31.99377 | 38143 ft | 474 kts | 238° |
| 2026-05-08 04:31 | 38.72775 | -32.05906 | 38155 ft | 474 kts | 238° |
| 2026-05-08 04:31 | 38.68611 | -32.12425 | 38157 ft | 475 kts | 238° |
| 2026-05-08 04:32 | 38.64451 | -32.18924 | 38153 ft | 474 kts | 238° |
| 2026-05-08 04:32 | 38.60282 | -32.25423 | 38155 ft | 472 kts | 238° |
| 2026-05-08 04:33 | 38.56141 | -32.31867 | 38174 ft | 472 kts | 238° |
| 2026-05-08 04:33 | 38.51981 | -32.38325 | 38158 ft | 467 kts | 239° |
| 2026-05-08 04:34 | 38.47860 | -32.44715 | 38179 ft | 470 kts | 239° |
| 2026-05-08 04:34 | 38.43710 | -32.51133 | 38167 ft | 466 kts | 239° |
| 2026-05-08 04:35 | 38.39584 | -32.57502 | 38161 ft | 466 kts | 239° |
| 2026-05-08 04:35 | 38.35447 | -32.63876 | 38159 ft | 465 kts | 239° |
| 2026-05-08 04:36 | 38.31338 | -32.70196 | 38188 ft | 466 kts | 238° |
| 2026-05-08 04:36 | 38.27217 | -32.76517 | 38187 ft | 462 kts | 239° |
| 2026-05-08 04:37 | 38.23128 | -32.82783 | 38189 ft | 464 kts | 238° |
| 2026-05-08 04:37 | 38.19021 | -32.89059 | 38201 ft | 461 kts | 239° |
| 2026-05-08 04:38 | 38.14935 | -32.95293 | 38194 ft | 460 kts | 239° |
| 2026-05-08 04:38 | 38.10870 | -33.01483 | 38199 ft | 457 kts | 239° |
| 2026-05-08 04:39 | 38.06819 | -33.07638 | 38192 ft | 455 kts | 239° |
| 2026-05-08 04:39 | 38.02745 | -33.13823 | 38204 ft | 458 kts | 239° |
| 2026-05-08 04:40 | 37.98702 | -33.19943 | 38217 ft | 455 kts | 240° |
| 2026-05-08 04:40 | 37.94660 | -33.26047 | 38210 ft | 450 kts | 240° |
| 2026-05-08 04:41 | 37.90618 | -33.32147 | 38185 ft | 452 kts | 240° |
| 2026-05-08 04:41 | 37.86581 | -33.38226 | 38344 ft | 453 kts | 240° |
| 2026-05-08 04:42 | 37.84539 | -33.41300 | 38189 ft | 454 kts | 240° |
| 2026-05-08 04:42 | 37.82525 | -33.44321 | 38170 ft | 453 kts | 240° |
| 2026-05-08 04:42 | 37.78478 | -33.50391 | 38179 ft | 450 kts | 240° |
| 2026-05-08 04:43 | 37.74456 | -33.56414 | 38180 ft | 450 kts | 240° |
| 2026-05-08 04:43 | 37.70439 | -33.62414 | 38180 ft | 448 kts | 240° |
| 2026-05-08 04:44 | 37.66385 | -33.68465 | 38192 ft | 449 kts | 239° |
| 2026-05-08 04:44 | 37.62382 | -33.74423 | 38191 ft | 447 kts | 239° |
| 2026-05-08 04:45 | 37.58342 | -33.80431 | 38187 ft | 449 kts | 240° |
| 2026-05-08 04:45 | 37.54313 | -33.86406 | 38199 ft | 448 kts | 240° |
| 2026-05-08 04:46 | 37.50279 | -33.92379 | 38214 ft | 445 kts | 239° |
| 2026-05-08 04:46 | 37.46295 | -33.98268 | 38202 ft | 447 kts | 240° |
| 2026-05-08 04:47 | 37.42249 | -34.04239 | 38206 ft | 446 kts | 239° |
| 2026-05-08 04:47 | 37.38232 | -34.10152 | 38202 ft | 442 kts | 240° |
| 2026-05-08 04:48 | 37.34243 | -34.16017 | 38206 ft | 443 kts | 239° |
| 2026-05-08 04:48 | 37.30239 | -34.21894 | 38204 ft | 442 kts | 239° |
| 2026-05-08 04:49 | 37.26248 | -34.27739 | 38205 ft | 441 kts | 239° |
| 2026-05-08 04:49 | 37.22248 | -34.33591 | 38211 ft | 444 kts | 239° |
| 2026-05-08 04:50 | 37.18212 | -34.39480 | 38215 ft | 443 kts | 239° |
| 2026-05-08 04:50 | 37.14201 | -34.45322 | 38215 ft | 439 kts | 239° |
| 2026-05-08 04:51 | 37.10225 | -34.51108 | 38215 ft | 441 kts | 239° |
| 2026-05-08 04:51 | 37.06227 | -34.56912 | 38215 ft | 441 kts | 239° |
| 2026-05-08 04:52 | 37.02206 | -34.62738 | 38220 ft | 438 kts | 239° |
| 2026-05-08 04:52 | 36.98251 | -34.68461 | 38233 ft | 440 kts | 239° |
| 2026-05-08 04:53 | 36.94238 | -34.74259 | 38229 ft | 441 kts | 238° |
| 2026-05-08 04:53 | 36.90224 | -34.80042 | 38230 ft | 436 kts | 238° |
| 2026-05-08 04:54 | 36.86268 | -34.85738 | 38214 ft | 437 kts | 238° |
| 2026-05-08 04:54 | 36.82278 | -34.91473 | 38217 ft | 440 kts | 238° |
| 2026-05-08 04:55 | 36.78286 | -34.97194 | 38216 ft | 435 kts | 238° |
| 2026-05-08 04:55 | 36.74311 | -35.02888 | 38216 ft | 436 kts | 238° |
| 2026-05-08 04:56 | 36.70322 | -35.08591 | 38216 ft | 436 kts | 238° |
| 2026-05-08 04:56 | 36.66327 | -35.14291 | 38218 ft | 437 kts | 238° |
| 2026-05-08 04:57 | 36.62360 | -35.19941 | 38215 ft | 436 kts | 238° |
| 2026-05-08 04:57 | 36.58379 | -35.25602 | 38221 ft | 437 kts | 238° |
| 2026-05-08 04:58 | 36.54374 | -35.31287 | 38222 ft | 435 kts | 238° |
| 2026-05-08 04:58 | 36.50371 | -35.36961 | 38218 ft | 436 kts | 237° |
| 2026-05-08 04:59 | 36.46377 | -35.42611 | 38223 ft | 436 kts | 238° |
| 2026-05-08 04:59 | 36.42367 | -35.48275 | 38218 ft | 437 kts | 237° |
| 2026-05-08 05:00 | 36.38352 | -35.53935 | 38221 ft | 435 kts | 237° |
| 2026-05-08 05:00 | 36.34344 | -35.59578 | 38220 ft | 437 kts | 237° |
| 2026-05-08 05:01 | 36.30339 | -35.65203 | 38229 ft | 435 kts | 237° |
| 2026-05-08 05:01 | 36.26335 | -35.70822 | 38235 ft | 436 kts | 237° |
| 2026-05-08 05:02 | 36.22326 | -35.76436 | 38235 ft | 436 kts | 236° |
| 2026-05-08 05:02 | 36.18293 | -35.82075 | 38239 ft | 437 kts | 236° |
| 2026-05-08 05:03 | 36.14255 | -35.87712 | 38238 ft | 438 kts | 236° |
| 2026-05-08 05:03 | 36.10226 | -35.93324 | 38245 ft | 436 kts | 236° |
| 2026-05-08 05:04 | 36.06186 | -35.98945 | 38245 ft | 437 kts | 236° |
| 2026-05-08 05:04 | 36.02154 | -36.04546 | 38242 ft | 438 kts | 236° |
| 2026-05-08 05:05 | 35.98099 | -36.10167 | 38243 ft | 437 kts | 236° |
| 2026-05-08 05:05 | 35.94081 | -36.15728 | 38245 ft | 436 kts | 236° |
| 2026-05-08 05:06 | 35.90033 | -36.21320 | 38246 ft | 435 kts | 236° |
| 2026-05-08 05:06 | 35.85995 | -36.26891 | 38241 ft | 434 kts | 236° |
| 2026-05-08 05:07 | 35.81982 | -36.32420 | 38243 ft | 436 kts | 236° |
| 2026-05-08 05:07 | 35.77961 | -36.37947 | 38237 ft | 433 kts | 236° |
| 2026-05-08 05:08 | 35.73937 | -36.43471 | 38244 ft | 433 kts | 236° |
| 2026-05-08 05:08 | 35.69904 | -36.49000 | 38240 ft | 435 kts | 236° |
| 2026-05-08 05:09 | 35.65889 | -36.54494 | 38241 ft | 434 kts | 235° |
| 2026-05-08 05:09 | 35.61851 | -36.60009 | 38244 ft | 433 kts | 236° |
| 2026-05-08 05:10 | 35.55786 | -36.68279 | 38257 ft | 435 kts | 235° |
| 2026-05-08 05:11 | 35.51757 | -36.73760 | 38256 ft | 435 kts | 235° |
| 2026-05-08 05:11 | 35.47727 | -36.79232 | 38261 ft | 434 kts | 235° |
| 2026-05-08 05:12 | 35.43649 | -36.84764 | 38261 ft | 435 kts | 235° |
| 2026-05-08 05:12 | 35.39615 | -36.90224 | 38253 ft | 434 kts | 234° |
| 2026-05-08 05:13 | 35.35548 | -36.95722 | 38261 ft | 436 kts | 234° |
| 2026-05-08 05:13 | 35.31501 | -37.01184 | 38262 ft | 435 kts | 234° |
| 2026-05-08 05:14 | 35.27423 | -37.06678 | 38254 ft | 434 kts | 234° |
| 2026-05-08 05:14 | 35.23357 | -37.12148 | 38262 ft | 435 kts | 234° |
| 2026-05-08 05:15 | 35.19291 | -37.17608 | 38257 ft | 435 kts | 234° |
| 2026-05-08 05:15 | 35.15242 | -37.23036 | 38257 ft | 434 kts | 234° |
| 2026-05-08 05:16 | 35.11176 | -37.28481 | 38255 ft | 435 kts | 234° |
| 2026-05-08 05:16 | 35.07089 | -37.33942 | 38259 ft | 433 kts | 234° |
| 2026-05-08 05:17 | 35.03030 | -37.39359 | 38261 ft | 434 kts | 234° |
| 2026-05-08 05:17 | 34.98971 | -37.44767 | 38251 ft | 433 kts | 234° |
| 2026-05-08 05:18 | 34.94918 | -37.50159 | 38259 ft | 433 kts | 234° |
| 2026-05-08 05:18 | 34.90833 | -37.55584 | 38247 ft | 433 kts | 234° |
| 2026-05-08 05:19 | 34.86779 | -37.60960 | 38250 ft | 432 kts | 234° |
| 2026-05-08 05:19 | 34.82717 | -37.66339 | 38254 ft | 434 kts | 233° |
| 2026-05-08 05:20 | 34.78633 | -37.71737 | 38256 ft | 433 kts | 233° |
| 2026-05-08 05:20 | 34.74567 | -37.77104 | 38256 ft | 434 kts | 233° |
| 2026-05-08 05:21 | 34.70470 | -37.82500 | 38264 ft | 432 kts | 233° |
| 2026-05-08 05:21 | 34.66416 | -37.87836 | 38257 ft | 433 kts | 233° |
| 2026-05-08 05:22 | 34.62332 | -37.93200 | 38261 ft | 431 kts | 233° |
| 2026-05-08 05:22 | 34.58271 | -37.98527 | 38257 ft | 432 kts | 233° |
| 2026-05-08 05:23 | 34.54169 | -38.03900 | 38255 ft | 432 kts | 233° |
| 2026-05-08 05:23 | 34.50090 | -38.09232 | 38251 ft | 431 kts | 233° |
| 2026-05-08 05:24 | 34.46008 | -38.14561 | 38246 ft | 432 kts | 233° |
| 2026-05-08 05:24 | 34.41926 | -38.19882 | 38248 ft | 431 kts | 233° |
| 2026-05-08 05:25 | 34.37855 | -38.25180 | 38247 ft | 432 kts | 233° |
| 2026-05-08 05:25 | 34.33775 | -38.30482 | 38248 ft | 431 kts | 233° |
| 2026-05-08 05:26 | 34.29684 | -38.35791 | 38243 ft | 431 kts | 233° |
| 2026-05-08 05:26 | 34.25614 | -38.41063 | 38245 ft | 429 kts | 233° |
| 2026-05-08 05:27 | 34.21529 | -38.46347 | 38247 ft | 431 kts | 233° |
| 2026-05-08 05:27 | 34.17453 | -38.51612 | 38248 ft | 431 kts | 233° |
| 2026-05-08 05:28 | 34.13363 | -38.56887 | 38244 ft | 429 kts | 233° |
| 2026-05-08 05:28 | 34.09261 | -38.62168 | 38244 ft | 430 kts | 232° |
| 2026-05-08 05:29 | 34.05193 | -38.67399 | 38259 ft | 429 kts | 232° |
| 2026-05-08 05:29 | 34.01088 | -38.72669 | 38267 ft | 429 kts | 232° |
| 2026-05-08 05:30 | 33.97029 | -38.77871 | 38259 ft | 429 kts | 232° |
| 2026-05-08 05:30 | 33.92947 | -38.83096 | 38262 ft | 428 kts | 232° |
| 2026-05-08 05:31 | 33.88849 | -38.88335 | 38252 ft | 430 kts | 232° |
| 2026-05-08 05:31 | 33.84734 | -38.93585 | 38263 ft | 429 kts | 232° |
| 2026-05-08 05:32 | 33.80670 | -38.98762 | 38255 ft | 428 kts | 232° |
| 2026-05-08 05:32 | 33.76561 | -39.03992 | 38252 ft | 429 kts | 232° |
| 2026-05-08 05:33 | 33.72487 | -39.09166 | 38258 ft | 426 kts | 232° |
| 2026-05-08 05:33 | 33.68411 | -39.14338 | 38243 ft | 428 kts | 232° |
| 2026-05-08 05:34 | 33.64353 | -39.19477 | 38250 ft | 428 kts | 232° |
| 2026-05-08 05:34 | 33.60272 | -39.24639 | 38246 ft | 427 kts | 232° |
| 2026-05-08 05:35 | 33.56171 | -39.29817 | 38253 ft | 426 kts | 232° |
| 2026-05-08 05:35 | 33.52101 | -39.34950 | 38248 ft | 425 kts | 232° |
| 2026-05-08 05:36 | 33.48048 | -39.40053 | 38255 ft | 423 kts | 232° |
| 2026-05-08 05:36 | 33.43983 | -39.45166 | 38241 ft | 425 kts | 231° |
| 2026-05-08 05:37 | 33.39885 | -39.50311 | 38253 ft | 425 kts | 231° |
| 2026-05-08 05:37 | 33.35837 | -39.55385 | 38251 ft | 423 kts | 232° |
| 2026-05-08 05:38 | 33.31760 | -39.60491 | 38246 ft | 423 kts | 231° |
| 2026-05-08 05:38 | 33.27683 | -39.65587 | 38259 ft | 424 kts | 231° |
| 2026-05-08 05:39 | 33.23624 | -39.70654 | 38267 ft | 422 kts | 231° |
| 2026-05-08 05:39 | 33.19567 | -39.75711 | 38261 ft | 423 kts | 231° |
| 2026-05-08 05:40 | 33.15505 | -39.80768 | 38276 ft | 423 kts | 231° |
| 2026-05-08 05:40 | 33.11438 | -39.85822 | 38255 ft | 421 kts | 231° |
| 2026-05-08 05:41 | 33.07399 | -39.90836 | 38256 ft | 420 kts | 231° |
| 2026-05-08 05:41 | 33.03329 | -39.95881 | 38253 ft | 422 kts | 230° |
| 2026-05-08 05:42 | 32.99287 | -40.00892 | 38238 ft | 422 kts | 232° |
| 2026-05-08 05:42 | 32.95388 | -40.06108 | 38238 ft | 420 kts | 233° |
| 2026-05-08 05:43 | 32.91544 | -40.11267 | 38237 ft | 419 kts | 232° |
| 2026-05-08 05:43 | 32.87674 | -40.16439 | 38237 ft | 419 kts | 232° |
| 2026-05-08 05:44 | 32.83780 | -40.21628 | 38236 ft | 418 kts | 232° |
| 2026-05-08 05:44 | 32.79913 | -40.26769 | 38234 ft | 418 kts | 232° |
| 2026-05-08 05:45 | 32.76043 | -40.31908 | 38231 ft | 418 kts | 232° |
| 2026-05-08 05:45 | 32.72150 | -40.37067 | 38228 ft | 418 kts | 232° |
| 2026-05-08 05:46 | 32.68296 | -40.42167 | 38230 ft | 417 kts | 232° |
| 2026-05-08 05:46 | 32.64400 | -40.47316 | 38225 ft | 418 kts | 232° |
| 2026-05-08 05:47 | 32.60560 | -40.52382 | 38225 ft | 416 kts | 232° |
| 2026-05-08 05:47 | 32.56684 | -40.57490 | 38224 ft | 417 kts | 232° |
| 2026-05-08 05:48 | 32.52804 | -40.62595 | 38223 ft | 415 kts | 232° |
| 2026-05-08 05:48 | 32.48957 | -40.67651 | 38237 ft | 418 kts | 232° |
| 2026-05-08 05:49 | 32.45063 | -40.72760 | 38236 ft | 416 kts | 231° |
| 2026-05-08 05:49 | 32.41170 | -40.77861 | 38234 ft | 416 kts | 231° |
| 2026-05-08 05:50 | 32.37293 | -40.82934 | 38231 ft | 416 kts | 231° |
| 2026-05-08 05:50 | 32.33423 | -40.87992 | 38226 ft | 415 kts | 231° |
| 2026-05-08 05:51 | 32.29569 | -40.93021 | 38227 ft | 414 kts | 231° |
| 2026-05-08 05:51 | 32.25702 | -40.98061 | 38226 ft | 415 kts | 231° |
| 2026-05-08 05:52 | 32.21837 | -41.03090 | 38221 ft | 413 kts | 231° |
| 2026-05-08 05:52 | 32.17980 | -41.08103 | 38220 ft | 414 kts | 231° |
| 2026-05-08 05:53 | 32.14090 | -41.13152 | 38222 ft | 415 kts | 231° |
| 2026-05-08 05:53 | 32.10246 | -41.18133 | 38217 ft | 411 kts | 231° |
| 2026-05-08 05:54 | 32.06366 | -41.23157 | 38214 ft | 413 kts | 231° |
| 2026-05-08 05:54 | 32.02521 | -41.28126 | 38213 ft | 412 kts | 231° |
| 2026-05-08 05:55 | 31.98655 | -41.33116 | 38210 ft | 412 kts | 231° |
| 2026-05-08 05:55 | 31.94784 | -41.38106 | 38211 ft | 413 kts | 231° |
| 2026-05-08 05:56 | 31.90925 | -41.43075 | 38207 ft | 411 kts | 230° |
| 2026-05-08 05:56 | 31.87053 | -41.48053 | 38208 ft | 414 kts | 231° |
| 2026-05-08 05:57 | 31.83172 | -41.53035 | 38211 ft | 412 kts | 230° |
| 2026-05-08 05:57 | 31.79314 | -41.57982 | 38209 ft | 412 kts | 230° |
| 2026-05-08 05:58 | 31.75448 | -41.62933 | 38207 ft | 414 kts | 230° |
| 2026-05-08 05:58 | 31.71559 | -41.67907 | 38219 ft | 413 kts | 230° |
| 2026-05-08 05:59 | 31.67666 | -41.72877 | 38215 ft | 413 kts | 230° |
| 2026-05-08 05:59 | 31.63779 | -41.77835 | 38215 ft | 414 kts | 230° |
| 2026-05-08 06:00 | 31.59897 | -41.82779 | 38215 ft | 412 kts | 230° |
| 2026-05-08 06:00 | 31.55991 | -41.87748 | 38212 ft | 414 kts | 230° |
| 2026-05-08 06:01 | 31.52076 | -41.92722 | 38210 ft | 414 kts | 229° |
| 2026-05-08 06:01 | 31.48183 | -41.97660 | 38207 ft | 414 kts | 229° |
| 2026-05-08 06:02 | 31.44293 | -42.02589 | 38208 ft | 413 kts | 230° |
| 2026-05-08 06:02 | 31.40398 | -42.07517 | 38207 ft | 414 kts | 230° |
| 2026-05-08 06:03 | 31.36496 | -42.12447 | 38204 ft | 410 kts | 229° |
| 2026-05-08 06:03 | 31.32611 | -42.17351 | 38200 ft | 411 kts | 229° |
| 2026-05-08 06:04 | 31.28737 | -42.22233 | 38203 ft | 410 kts | 229° |
| 2026-05-08 06:04 | 31.24831 | -42.27150 | 38197 ft | 411 kts | 229° |
| 2026-05-08 06:05 | 31.20955 | -42.32022 | 38190 ft | 410 kts | 229° |
| 2026-05-08 06:05 | 31.17091 | -42.36874 | 38195 ft | 410 kts | 229° |
| 2026-05-08 06:06 | 31.13201 | -42.41751 | 38188 ft | 411 kts | 229° |
| 2026-05-08 06:06 | 31.09314 | -42.46618 | 38191 ft | 409 kts | 229° |
| 2026-05-08 06:07 | 31.05419 | -42.51489 | 38188 ft | 411 kts | 229° |
| 2026-05-08 06:07 | 31.01504 | -42.56379 | 38191 ft | 411 kts | 229° |
| 2026-05-08 06:08 | 30.97605 | -42.61241 | 38183 ft | 411 kts | 229° |
| 2026-05-08 06:08 | 30.93709 | -42.66096 | 38196 ft | 411 kts | 229° |
| 2026-05-08 06:09 | 30.89795 | -42.70965 | 38200 ft | 410 kts | 229° |
| 2026-05-08 06:09 | 30.85906 | -42.75798 | 38207 ft | 410 kts | 229° |
| 2026-05-08 06:10 | 30.82001 | -42.80644 | 38201 ft | 411 kts | 229° |
| 2026-05-08 06:10 | 30.78082 | -42.85502 | 38201 ft | 411 kts | 228° |
| 2026-05-08 06:11 | 30.74161 | -42.90355 | 38197 ft | 410 kts | 228° |
| 2026-05-08 06:11 | 30.70247 | -42.95194 | 38192 ft | 411 kts | 228° |
| 2026-05-08 06:12 | 30.66337 | -43.00021 | 38181 ft | 410 kts | 228° |
| 2026-05-08 06:12 | 30.62442 | -43.04824 | 38179 ft | 410 kts | 228° |
| 2026-05-08 06:13 | 30.58520 | -43.09655 | 38178 ft | 411 kts | 228° |
| 2026-05-08 06:13 | 30.54620 | -43.14452 | 38179 ft | 411 kts | 228° |
| 2026-05-08 06:14 | 30.50699 | -43.19269 | 38175 ft | 410 kts | 228° |
| 2026-05-08 06:14 | 30.46785 | -43.24072 | 38173 ft | 410 kts | 228° |
| 2026-05-08 06:15 | 30.42878 | -43.28859 | 38174 ft | 409 kts | 228° |
| 2026-05-08 06:15 | 30.38962 | -43.33652 | 38175 ft | 409 kts | 228° |
| 2026-05-08 06:16 | 30.35045 | -43.38440 | 38173 ft | 409 kts | 228° |
| 2026-05-08 06:16 | 30.31145 | -43.43200 | 38171 ft | 410 kts | 228° |
| 2026-05-08 06:17 | 30.25244 | -43.50394 | 38170 ft | 409 kts | 228° |
| 2026-05-08 06:17 | 30.21335 | -43.55151 | 38169 ft | 408 kts | 228° |
| 2026-05-08 06:18 | 30.17417 | -43.59914 | 38169 ft | 408 kts | 227° |
| 2026-05-08 06:18 | 30.13509 | -43.64658 | 38165 ft | 409 kts | 228° |
| 2026-05-08 06:19 | 30.09591 | -43.69409 | 38179 ft | 409 kts | 227° |
| 2026-05-08 06:19 | 30.05664 | -43.74165 | 38178 ft | 409 kts | 227° |
| 2026-05-08 06:20 | 30.01753 | -43.78894 | 38175 ft | 409 kts | 227° |
| 2026-05-08 06:20 | 29.97817 | -43.83650 | 38163 ft | 407 kts | 227° |
| 2026-05-08 06:21 | 29.93908 | -43.88367 | 38158 ft | 408 kts | 227° |
| 2026-05-08 06:21 | 29.90004 | -43.93072 | 38154 ft | 407 kts | 227° |
| 2026-05-08 06:22 | 29.86097 | -43.97776 | 38164 ft | 407 kts | 227° |
| 2026-05-08 06:22 | 29.82172 | -44.02494 | 38160 ft | 408 kts | 227° |
| 2026-05-08 06:23 | 29.78256 | -44.07196 | 38162 ft | 408 kts | 227° |
| 2026-05-08 06:23 | 29.74319 | -44.11918 | 38155 ft | 408 kts | 227° |
| 2026-05-08 06:24 | 29.70403 | -44.16609 | 38156 ft | 408 kts | 227° |
| 2026-05-08 06:24 | 29.66480 | -44.21303 | 38158 ft | 407 kts | 227° |
| 2026-05-08 06:25 | 29.62537 | -44.26014 | 38153 ft | 408 kts | 227° |
| 2026-05-08 06:25 | 29.58602 | -44.30711 | 38150 ft | 407 kts | 227° |
| 2026-05-08 06:26 | 29.54694 | -44.35370 | 38147 ft | 407 kts | 227° |
| 2026-05-08 06:26 | 29.50751 | -44.40066 | 38149 ft | 408 kts | 227° |
| 2026-05-08 06:27 | 29.46819 | -44.44741 | 38143 ft | 407 kts | 227° |
| 2026-05-08 06:27 | 29.42882 | -44.49418 | 38148 ft | 408 kts | 227° |
| 2026-05-08 06:28 | 29.38937 | -44.54099 | 38141 ft | 406 kts | 227° |
| 2026-05-08 06:28 | 29.35021 | -44.58740 | 38138 ft | 406 kts | 227° |
| 2026-05-08 06:29 | 29.31083 | -44.63401 | 38135 ft | 407 kts | 226° |
| 2026-05-08 06:29 | 29.27146 | -44.68055 | 38148 ft | 406 kts | 226° |
| 2026-05-08 06:30 | 29.23227 | -44.72683 | 38144 ft | 407 kts | 226° |
| 2026-05-08 06:30 | 29.19254 | -44.77370 | 38142 ft | 407 kts | 226° |
| 2026-05-08 06:31 | 29.15339 | -44.81981 | 38143 ft | 407 kts | 226° |
| 2026-05-08 06:31 | 29.11398 | -44.86619 | 38138 ft | 408 kts | 226° |
| 2026-05-08 06:32 | 29.07429 | -44.91284 | 38137 ft | 407 kts | 226° |
| 2026-05-08 06:32 | 29.03478 | -44.95923 | 38133 ft | 408 kts | 226° |
| 2026-05-08 06:33 | 28.99551 | -45.00529 | 38130 ft | 407 kts | 227° |
| 2026-05-08 06:33 | 28.95847 | -45.05412 | 38128 ft | 407 kts | 230° |
| 2026-05-08 06:34 | 28.92159 | -45.10342 | 38132 ft | 406 kts | 229° |
| 2026-05-08 06:34 | 28.88495 | -45.15212 | 38141 ft | 406 kts | 229° |
| 2026-05-08 06:35 | 28.84829 | -45.20065 | 38137 ft | 406 kts | 229° |
| 2026-05-08 06:35 | 28.81142 | -45.24936 | 38136 ft | 406 kts | 229° |
| 2026-05-08 06:36 | 28.77440 | -45.29816 | 38134 ft | 406 kts | 229° |
| 2026-05-08 06:36 | 28.73722 | -45.34711 | 38127 ft | 405 kts | 229° |
| 2026-05-08 06:37 | 28.70022 | -45.39576 | 38133 ft | 407 kts | 229° |
| 2026-05-08 06:37 | 28.66325 | -45.44429 | 38129 ft | 407 kts | 230° |
| 2026-05-08 06:38 | 28.62621 | -45.49287 | 38131 ft | 407 kts | 229° |
| 2026-05-08 06:38 | 28.58900 | -45.54162 | 38120 ft | 407 kts | 229° |
| 2026-05-08 06:39 | 28.55194 | -45.59010 | 38126 ft | 407 kts | 230° |
| 2026-05-08 06:39 | 28.51481 | -45.63864 | 38122 ft | 407 kts | 229° |
| 2026-05-08 06:40 | 28.47792 | -45.68679 | 38135 ft | 406 kts | 229° |
| 2026-05-08 06:40 | 28.44063 | -45.73541 | 38130 ft | 405 kts | 229° |
| 2026-05-08 06:41 | 28.40376 | -45.78342 | 38132 ft | 406 kts | 229° |
| 2026-05-08 06:41 | 28.36654 | -45.83183 | 38133 ft | 406 kts | 229° |
| 2026-05-08 06:42 | 28.32949 | -45.87998 | 38126 ft | 408 kts | 229° |
| 2026-05-08 06:42 | 28.29220 | -45.92838 | 38125 ft | 408 kts | 229° |
| 2026-05-08 06:43 | 28.25481 | -45.97685 | 38115 ft | 407 kts | 229° |
| 2026-05-08 06:43 | 28.21742 | -46.02525 | 38115 ft | 407 kts | 229° |
| 2026-05-08 06:44 | 28.18021 | -46.07338 | 38116 ft | 407 kts | 229° |
| 2026-05-08 06:44 | 28.14280 | -46.12170 | 38114 ft | 408 kts | 229° |
| 2026-05-08 06:45 | 28.10542 | -46.16995 | 38113 ft | 408 kts | 229° |
| 2026-05-08 06:45 | 28.06824 | -46.21787 | 38111 ft | 407 kts | 229° |
| 2026-05-08 06:46 | 28.03073 | -46.26615 | 38102 ft | 406 kts | 229° |
| 2026-05-08 06:46 | 27.99365 | -46.31383 | 38106 ft | 406 kts | 229° |
| 2026-05-08 06:47 | 27.95635 | -46.36175 | 38102 ft | 405 kts | 229° |
| 2026-05-08 06:47 | 27.91904 | -46.40961 | 38102 ft | 405 kts | 229° |
| 2026-05-08 06:48 | 27.88166 | -46.45751 | 38117 ft | 407 kts | 229° |
| 2026-05-08 06:48 | 27.84413 | -46.50556 | 38109 ft | 406 kts | 229° |
| 2026-05-08 06:49 | 27.80690 | -46.55316 | 38107 ft | 407 kts | 229° |
| 2026-05-08 06:49 | 27.76950 | -46.60093 | 38112 ft | 407 kts | 229° |
| 2026-05-08 06:50 | 27.73195 | -46.64883 | 38105 ft | 406 kts | 229° |
| 2026-05-08 06:50 | 27.69442 | -46.69666 | 38117 ft | 407 kts | 228° |
| 2026-05-08 06:51 | 27.65696 | -46.74435 | 38114 ft | 407 kts | 228° |
| 2026-05-08 06:51 | 27.61933 | -46.79219 | 38112 ft | 407 kts | 229° |
| 2026-05-08 06:52 | 27.58196 | -46.83965 | 38111 ft | 407 kts | 229° |
| 2026-05-08 06:52 | 27.54416 | -46.88761 | 38117 ft | 408 kts | 229° |
| 2026-05-08 06:53 | 27.50665 | -46.93514 | 38118 ft | 406 kts | 229° |
| 2026-05-08 06:53 | 27.46892 | -46.98290 | 38117 ft | 407 kts | 229° |
| 2026-05-08 06:54 | 27.43141 | -47.03033 | 38112 ft | 406 kts | 229° |
| 2026-05-08 06:54 | 27.39380 | -47.07783 | 38112 ft | 408 kts | 229° |
| 2026-05-08 06:55 | 27.35617 | -47.12530 | 38112 ft | 406 kts | 229° |
| 2026-05-08 06:55 | 27.31844 | -47.17285 | 38104 ft | 407 kts | 229° |
| 2026-05-08 06:56 | 27.28083 | -47.22019 | 38102 ft | 406 kts | 229° |
| 2026-05-08 06:56 | 27.24330 | -47.26738 | 38102 ft | 407 kts | 229° |
| 2026-05-08 06:57 | 27.20565 | -47.31468 | 38099 ft | 406 kts | 229° |
| 2026-05-08 06:57 | 27.16787 | -47.36207 | 38098 ft | 408 kts | 229° |
| 2026-05-08 06:58 | 27.13000 | -47.40954 | 38091 ft | 408 kts | 229° |
| 2026-05-08 06:58 | 27.09229 | -47.45675 | 38088 ft | 408 kts | 229° |
| 2026-05-08 06:59 | 27.05441 | -47.50411 | 38084 ft | 407 kts | 229° |
| 2026-05-08 06:59 | 27.01660 | -47.55135 | 38084 ft | 407 kts | 229° |
| 2026-05-08 07:00 | 26.97892 | -47.59837 | 38076 ft | 406 kts | 229° |
| 2026-05-08 07:00 | 26.94103 | -47.64560 | 38073 ft | 406 kts | 229° |
| 2026-05-08 07:01 | 26.90330 | -47.69258 | 38085 ft | 407 kts | 228° |
| 2026-05-08 07:01 | 26.86561 | -47.73946 | 38094 ft | 405 kts | 228° |
| 2026-05-08 07:02 | 26.82785 | -47.78637 | 38088 ft | 406 kts | 228° |
| 2026-05-08 07:02 | 26.78991 | -47.83345 | 38087 ft | 408 kts | 228° |
| 2026-05-08 07:03 | 26.75185 | -47.88064 | 38084 ft | 408 kts | 228° |
| 2026-05-08 07:03 | 26.71387 | -47.92767 | 38082 ft | 407 kts | 228° |
| 2026-05-08 07:04 | 26.67594 | -47.97460 | 38080 ft | 407 kts | 228° |
| 2026-05-08 07:04 | 26.63794 | -48.02155 | 38076 ft | 408 kts | 228° |
| 2026-05-08 07:05 | 26.60005 | -48.06834 | 38077 ft | 408 kts | 228° |
| 2026-05-08 07:05 | 26.56181 | -48.11549 | 38075 ft | 408 kts | 228° |
| 2026-05-08 07:06 | 26.52362 | -48.16253 | 38070 ft | 408 kts | 228° |
| 2026-05-08 07:06 | 26.48549 | -48.20945 | 38070 ft | 409 kts | 229° |
| 2026-05-08 07:07 | 26.44759 | -48.25603 | 38072 ft | 408 kts | 229° |
| 2026-05-08 07:07 | 26.40944 | -48.30288 | 38069 ft | 408 kts | 229° |
| 2026-05-08 07:08 | 26.37111 | -48.34989 | 38065 ft | 408 kts | 229° |